sensor_id;sensor_type;location;lat;lon;timestamp;P1;durP1;ratioP1;P2;durP2;ratioP2
74177;SDS011;62540;48.456;-4.456;2023-03-23T00:01:21;6.00;;;3.25;;
74177;SDS011;62540;48.456;-4.456;2023-03-23T00:03:50;4.75;;;4.25;;
74177;SDS011;62540;48.456;-4.456;2023-03-23T00:06:17;7.75;;;4.75;;
74177;SDS011;62540;48.456;-4.456;2023-03-23T00:08:44;7.50;;;4.50;;
74177;SDS011;62540;48.456;-4.456;2023-03-23T00:11:15;8.00;;;4.00;;
74177;SDS011;62540;48.456;-4.456;2023-03-23T00:13:43;13.00;;;6.00;;
74177;SDS011;62540;48.456;-4.456;2023-03-23T00:16:11;6.25;;;4.25;;
74177;SDS011;62540;48.456;-4.456;2023-03-23T00:18:53;5.25;;;4.00;;
74177;SDS011;62540;48.456;-4.456;2023-03-23T00:21:20;6.50;;;4.25;;
74177;SDS011;62540;48.456;-4.456;2023-03-23T00:23:53;5.75;;;3.00;;
74177;SDS011;62540;48.456;-4.456;2023-03-23T00:26:18;3.00;;;2.25;;
74177;SDS011;62540;48.456;-4.456;2023-03-23T00:28:44;4.50;;;3.25;;
74177;SDS011;62540;48.456;-4.456;2023-03-23T00:31:11;8.00;;;4.75;;
74177;SDS011;62540;48.456;-4.456;2023-03-23T00:33:38;6.25;;;4.00;;
74177;SDS011;62540;48.456;-4.456;2023-03-23T00:36:05;4.75;;;2.50;;
74177;SDS011;62540;48.456;-4.456;2023-03-23T00:38:33;5.25;;;3.50;;
74177;SDS011;62540;48.456;-4.456;2023-03-23T00:40:59;4.75;;;3.75;;
74177;SDS011;62540;48.456;-4.456;2023-03-23T00:43:28;3.25;;;2.00;;
74177;SDS011;62540;48.456;-4.456;2023-03-23T00:45:54;6.00;;;2.00;;
74177;SDS011;62540;48.456;-4.456;2023-03-23T00:48:24;7.00;;;4.50;;
74177;SDS011;62540;48.456;-4.456;2023-03-23T00:50:50;7.00;;;3.25;;
74177;SDS011;62540;48.456;-4.456;2023-03-23T00:53:16;11.00;;;4.00;;
74177;SDS011;62540;48.456;-4.456;2023-03-23T00:55:43;5.75;;;5.00;;
74177;SDS011;62540;48.456;-4.456;2023-03-23T00:58:10;5.00;;;3.00;;
74177;SDS011;62540;48.456;-4.456;2023-03-23T01:00:36;8.00;;;4.25;;
74177;SDS011;62540;48.456;-4.456;2023-03-23T01:03:02;9.50;;;5.50;;
74177;SDS011;62540;48.456;-4.456;2023-03-23T01:05:28;8.00;;;4.50;;
74177;SDS011;62540;48.456;-4.456;2023-03-23T01:07:57;5.00;;;4.50;;
74177;SDS011;62540;48.456;-4.456;2023-03-23T01:10:23;9.25;;;5.00;;
74177;SDS011;62540;48.456;-4.456;2023-03-23T01:12:51;10.25;;;7.25;;
74177;SDS011;62540;48.456;-4.456;2023-03-23T01:15:21;7.00;;;4.00;;
74177;SDS011;62540;48.456;-4.456;2023-03-23T01:17:47;11.00;;;4.00;;
74177;SDS011;62540;48.456;-4.456;2023-03-23T01:20:13;4.75;;;3.50;;
74177;SDS011;62540;48.456;-4.456;2023-03-23T01:22:40;8.50;;;5.00;;
74177;SDS011;62540;48.456;-4.456;2023-03-23T01:25:07;11.25;;;4.75;;
74177;SDS011;62540;48.456;-4.456;2023-03-23T01:27:33;9.00;;;3.75;;
74177;SDS011;62540;48.456;-4.456;2023-03-23T01:29:59;6.00;;;3.00;;
74177;SDS011;62540;48.456;-4.456;2023-03-23T01:32:24;4.50;;;4.00;;
74177;SDS011;62540;48.456;-4.456;2023-03-23T01:34:50;6.50;;;2.00;;
74177;SDS011;62540;48.456;-4.456;2023-03-23T01:37:15;8.25;;;3.50;;
74177;SDS011;62540;48.456;-4.456;2023-03-23T01:39:41;3.50;;;2.75;;
74177;SDS011;62540;48.456;-4.456;2023-03-23T01:42:08;3.75;;;3.00;;
74177;SDS011;62540;48.456;-4.456;2023-03-23T01:47:00;6.00;;;2.75;;
74177;SDS011;62540;48.456;-4.456;2023-03-23T01:49:27;4.50;;;3.50;;
74177;SDS011;62540;48.456;-4.456;2023-03-23T01:52:13;5.25;;;4.50;;
74177;SDS011;62540;48.456;-4.456;2023-03-23T01:54:46;6.25;;;3.75;;
74177;SDS011;62540;48.456;-4.456;2023-03-23T01:57:17;5.50;;;3.50;;
74177;SDS011;62540;48.456;-4.456;2023-03-23T01:59:47;4.50;;;3.00;;
74177;SDS011;62540;48.456;-4.456;2023-03-23T02:02:17;9.00;;;6.25;;
74177;SDS011;62540;48.456;-4.456;2023-03-23T02:04:44;8.25;;;5.00;;
74177;SDS011;62540;48.456;-4.456;2023-03-23T02:07:11;5.50;;;2.50;;
74177;SDS011;62540;48.456;-4.456;2023-03-23T02:09:38;6.00;;;4.50;;
74177;SDS011;62540;48.456;-4.456;2023-03-23T02:12:04;3.25;;;3.00;;
74177;SDS011;62540;48.456;-4.456;2023-03-23T02:14:30;11.25;;;5.00;;
74177;SDS011;62540;48.456;-4.456;2023-03-23T02:17:04;8.50;;;6.50;;
74177;SDS011;62540;48.456;-4.456;2023-03-23T02:22:24;10.50;;;7.50;;
74177;SDS011;62540;48.456;-4.456;2023-03-23T02:39:12;7.00;;;5.75;;
74177;SDS011;62540;48.456;-4.456;2023-03-23T02:41:45;7.00;;;5.00;;
74177;SDS011;62540;48.456;-4.456;2023-03-23T02:44:14;9.00;;;6.25;;
74177;SDS011;62540;48.456;-4.456;2023-03-23T02:46:41;7.50;;;4.75;;
74177;SDS011;62540;48.456;-4.456;2023-03-23T02:49:09;7.25;;;5.00;;
74177;SDS011;62540;48.456;-4.456;2023-03-23T02:51:37;11.00;;;7.50;;
74177;SDS011;62540;48.456;-4.456;2023-03-23T02:54:04;7.50;;;5.00;;
74177;SDS011;62540;48.456;-4.456;2023-03-23T02:56:30;8.25;;;4.75;;
74177;SDS011;62540;48.456;-4.456;2023-03-23T02:58:57;10.50;;;6.00;;
74177;SDS011;62540;48.456;-4.456;2023-03-23T03:03:57;8.50;;;5.50;;
74177;SDS011;62540;48.456;-4.456;2023-03-23T03:12:04;9.00;;;7.00;;
74177;SDS011;62540;48.456;-4.456;2023-03-23T03:14:39;5.75;;;4.50;;
74177;SDS011;62540;48.456;-4.456;2023-03-23T03:17:24;11.50;;;9.00;;
74177;SDS011;62540;48.456;-4.456;2023-03-23T03:19:53;13.25;;;6.25;;
74177;SDS011;62540;48.456;-4.456;2023-03-23T03:22:22;10.00;;;5.75;;
74177;SDS011;62540;48.456;-4.456;2023-03-23T03:24:53;10.25;;;6.50;;
74177;SDS011;62540;48.456;-4.456;2023-03-23T03:27:21;11.50;;;7.00;;
74177;SDS011;62540;48.456;-4.456;2023-03-23T03:29:49;13.75;;;6.75;;
74177;SDS011;62540;48.456;-4.456;2023-03-23T03:32:20;12.25;;;6.00;;
74177;SDS011;62540;48.456;-4.456;2023-03-23T03:34:49;10.00;;;7.25;;
74177;SDS011;62540;48.456;-4.456;2023-03-23T03:37:15;17.50;;;9.50;;
74177;SDS011;62540;48.456;-4.456;2023-03-23T03:39:42;10.50;;;5.75;;
74177;SDS011;62540;48.456;-4.456;2023-03-23T03:42:07;12.75;;;6.75;;
74177;SDS011;62540;48.456;-4.456;2023-03-23T03:44:33;10.25;;;7.50;;
74177;SDS011;62540;48.456;-4.456;2023-03-23T03:46:59;10.75;;;7.75;;
74177;SDS011;62540;48.456;-4.456;2023-03-23T03:49:24;12.75;;;9.00;;
74177;SDS011;62540;48.456;-4.456;2023-03-23T03:51:51;8.50;;;7.75;;
74177;SDS011;62540;48.456;-4.456;2023-03-23T03:54:17;11.50;;;8.25;;
74177;SDS011;62540;48.456;-4.456;2023-03-23T03:56:42;13.00;;;7.00;;
74177;SDS011;62540;48.456;-4.456;2023-03-23T03:59:09;11.00;;;7.00;;
74177;SDS011;62540;48.456;-4.456;2023-03-23T04:01:36;7.75;;;6.25;;
74177;SDS011;62540;48.456;-4.456;2023-03-23T04:04:02;11.00;;;7.50;;
74177;SDS011;62540;48.456;-4.456;2023-03-23T04:06:29;12.25;;;7.25;;
74177;SDS011;62540;48.456;-4.456;2023-03-23T04:08:55;14.00;;;6.75;;
74177;SDS011;62540;48.456;-4.456;2023-03-23T04:11:24;9.75;;;7.75;;
74177;SDS011;62540;48.456;-4.456;2023-03-23T04:13:51;11.50;;;8.75;;
74177;SDS011;62540;48.456;-4.456;2023-03-23T04:16:16;13.75;;;7.00;;
74177;SDS011;62540;48.456;-4.456;2023-03-23T04:18:42;13.75;;;9.25;;
74177;SDS011;62540;48.456;-4.456;2023-03-23T04:21:08;13.75;;;8.25;;
74177;SDS011;62540;48.456;-4.456;2023-03-23T04:23:34;11.00;;;8.00;;
74177;SDS011;62540;48.456;-4.456;2023-03-23T04:26:00;13.25;;;6.00;;
74177;SDS011;62540;48.456;-4.456;2023-03-23T04:28:28;15.00;;;9.75;;
74177;SDS011;62540;48.456;-4.456;2023-03-23T04:30:54;13.25;;;10.50;;
74177;SDS011;62540;48.456;-4.456;2023-03-23T04:33:21;12.25;;;7.75;;
74177;SDS011;62540;48.456;-4.456;2023-03-23T04:35:50;10.25;;;8.75;;
74177;SDS011;62540;48.456;-4.456;2023-03-23T04:38:19;26.50;;;14.50;;
74177;SDS011;62540;48.456;-4.456;2023-03-23T04:40:47;9.00;;;4.25;;
74177;SDS011;62540;48.456;-4.456;2023-03-23T04:43:13;15.75;;;10.25;;
74177;SDS011;62540;48.456;-4.456;2023-03-23T04:45:39;9.50;;;8.25;;
74177;SDS011;62540;48.456;-4.456;2023-03-23T04:48:10;12.75;;;8.00;;
74177;SDS011;62540;48.456;-4.456;2023-03-23T04:50:36;15.75;;;9.50;;
74177;SDS011;62540;48.456;-4.456;2023-03-23T04:53:02;16.25;;;11.25;;
74177;SDS011;62540;48.456;-4.456;2023-03-23T04:55:33;17.75;;;10.00;;
74177;SDS011;62540;48.456;-4.456;2023-03-23T04:58:03;15.25;;;10.50;;
74177;SDS011;62540;48.456;-4.456;2023-03-23T05:00:29;9.00;;;8.25;;
74177;SDS011;62540;48.456;-4.456;2023-03-23T05:02:55;14.50;;;9.25;;
74177;SDS011;62540;48.456;-4.456;2023-03-23T05:05:21;13.25;;;7.50;;
74177;SDS011;62540;48.456;-4.456;2023-03-23T05:07:49;13.75;;;8.50;;
74177;SDS011;62540;48.456;-4.456;2023-03-23T05:10:15;16.25;;;9.00;;
74177;SDS011;62540;48.456;-4.456;2023-03-23T05:12:41;14.50;;;9.00;;
74177;SDS011;62540;48.456;-4.456;2023-03-23T05:15:08;17.50;;;11.50;;
74177;SDS011;62540;48.456;-4.456;2023-03-23T05:17:35;14.00;;;10.00;;
74177;SDS011;62540;48.456;-4.456;2023-03-23T05:20:01;14.50;;;10.50;;
74177;SDS011;62540;48.456;-4.456;2023-03-23T05:22:31;16.00;;;12.25;;
74177;SDS011;62540;48.456;-4.456;2023-03-23T05:24:59;15.50;;;9.25;;
74177;SDS011;62540;48.456;-4.456;2023-03-23T05:27:27;12.50;;;9.00;;
74177;SDS011;62540;48.456;-4.456;2023-03-23T05:29:55;16.75;;;10.75;;
74177;SDS011;62540;48.456;-4.456;2023-03-23T05:32:23;15.25;;;9.25;;
74177;SDS011;62540;48.456;-4.456;2023-03-23T05:35:00;19.25;;;11.00;;
74177;SDS011;62540;48.456;-4.456;2023-03-23T05:37:27;13.00;;;7.50;;
74177;SDS011;62540;48.456;-4.456;2023-03-23T05:39:59;12.25;;;9.25;;
74177;SDS011;62540;48.456;-4.456;2023-03-23T05:42:31;13.25;;;8.75;;
74177;SDS011;62540;48.456;-4.456;2023-03-23T05:45:01;12.00;;;7.75;;
74177;SDS011;62540;48.456;-4.456;2023-03-23T05:47:28;17.50;;;10.75;;
74177;SDS011;62540;48.456;-4.456;2023-03-23T05:49:54;10.75;;;6.75;;
74177;SDS011;62540;48.456;-4.456;2023-03-23T05:52:19;11.75;;;8.75;;
74177;SDS011;62540;48.456;-4.456;2023-03-23T05:54:45;8.50;;;8.00;;
74177;SDS011;62540;48.456;-4.456;2023-03-23T05:57:11;10.50;;;7.75;;
74177;SDS011;62540;48.456;-4.456;2023-03-23T05:59:36;13.25;;;8.75;;
74177;SDS011;62540;48.456;-4.456;2023-03-23T06:02:02;10.25;;;5.00;;
74177;SDS011;62540;48.456;-4.456;2023-03-23T06:04:28;15.00;;;9.00;;
74177;SDS011;62540;48.456;-4.456;2023-03-23T06:06:53;10.50;;;7.75;;
74177;SDS011;62540;48.456;-4.456;2023-03-23T06:09:18;15.50;;;10.00;;
74177;SDS011;62540;48.456;-4.456;2023-03-23T06:11:44;12.25;;;7.75;;
74177;SDS011;62540;48.456;-4.456;2023-03-23T06:14:10;12.00;;;7.50;;
74177;SDS011;62540;48.456;-4.456;2023-03-23T06:16:36;10.75;;;8.00;;
74177;SDS011;62540;48.456;-4.456;2023-03-23T06:19:02;13.50;;;8.50;;
74177;SDS011;62540;48.456;-4.456;2023-03-23T06:21:30;9.75;;;7.50;;
74177;SDS011;62540;48.456;-4.456;2023-03-23T06:23:59;9.50;;;7.25;;
74177;SDS011;62540;48.456;-4.456;2023-03-23T06:26:28;13.00;;;7.00;;
74177;SDS011;62540;48.456;-4.456;2023-03-23T06:28:57;12.50;;;8.75;;
74177;SDS011;62540;48.456;-4.456;2023-03-23T06:31:23;13.75;;;9.00;;
74177;SDS011;62540;48.456;-4.456;2023-03-23T06:33:50;17.75;;;10.25;;
74177;SDS011;62540;48.456;-4.456;2023-03-23T06:36:16;14.25;;;9.00;;
74177;SDS011;62540;48.456;-4.456;2023-03-23T06:38:41;12.25;;;9.75;;
74177;SDS011;62540;48.456;-4.456;2023-03-23T06:41:07;12.25;;;7.00;;
74177;SDS011;62540;48.456;-4.456;2023-03-23T06:43:33;12.75;;;7.25;;
74177;SDS011;62540;48.456;-4.456;2023-03-23T06:46:01;12.50;;;7.00;;
74177;SDS011;62540;48.456;-4.456;2023-03-23T06:48:26;9.25;;;6.75;;
74177;SDS011;62540;48.456;-4.456;2023-03-23T06:50:52;9.75;;;8.25;;
74177;SDS011;62540;48.456;-4.456;2023-03-23T06:53:17;12.00;;;8.25;;
74177;SDS011;62540;48.456;-4.456;2023-03-23T06:55:45;11.50;;;8.75;;
74177;SDS011;62540;48.456;-4.456;2023-03-23T06:58:11;16.75;;;9.50;;
74177;SDS011;62540;48.456;-4.456;2023-03-23T07:00:36;14.75;;;9.00;;
74177;SDS011;62540;48.456;-4.456;2023-03-23T07:03:02;21.00;;;11.75;;
74177;SDS011;62540;48.456;-4.456;2023-03-23T07:05:28;16.75;;;8.25;;
74177;SDS011;62540;48.456;-4.456;2023-03-23T07:07:55;11.25;;;7.50;;
74177;SDS011;62540;48.456;-4.456;2023-03-23T07:10:20;11.00;;;8.00;;
74177;SDS011;62540;48.456;-4.456;2023-03-23T07:12:46;10.75;;;7.50;;
74177;SDS011;62540;48.456;-4.456;2023-03-23T07:15:11;15.25;;;10.00;;
74177;SDS011;62540;48.456;-4.456;2023-03-23T07:17:38;14.50;;;10.00;;
74177;SDS011;62540;48.456;-4.456;2023-03-23T07:20:05;9.75;;;7.00;;
74177;SDS011;62540;48.456;-4.456;2023-03-23T07:22:31;14.00;;;11.00;;
74177;SDS011;62540;48.456;-4.456;2023-03-23T07:24:57;16.50;;;11.50;;
74177;SDS011;62540;48.456;-4.456;2023-03-23T07:27:22;16.50;;;10.25;;
74177;SDS011;62540;48.456;-4.456;2023-03-23T07:29:48;15.25;;;10.50;;
74177;SDS011;62540;48.456;-4.456;2023-03-23T07:32:13;14.00;;;10.00;;
74177;SDS011;62540;48.456;-4.456;2023-03-23T07:34:39;12.50;;;9.00;;
74177;SDS011;62540;48.456;-4.456;2023-03-23T07:37:06;14.25;;;8.00;;
74177;SDS011;62540;48.456;-4.456;2023-03-23T07:39:32;15.50;;;8.00;;
74177;SDS011;62540;48.456;-4.456;2023-03-23T07:41:58;12.25;;;10.00;;
74177;SDS011;62540;48.456;-4.456;2023-03-23T07:44:24;12.25;;;9.50;;
74177;SDS011;62540;48.456;-4.456;2023-03-23T07:46:49;13.75;;;7.75;;
74177;SDS011;62540;48.456;-4.456;2023-03-23T07:49:15;14.50;;;10.75;;
74177;SDS011;62540;48.456;-4.456;2023-03-23T07:51:42;18.75;;;11.50;;
74177;SDS011;62540;48.456;-4.456;2023-03-23T07:54:07;12.75;;;8.00;;
74177;SDS011;62540;48.456;-4.456;2023-03-23T07:56:33;15.00;;;9.75;;
74177;SDS011;62540;48.456;-4.456;2023-03-23T07:59:00;16.00;;;8.75;;
74177;SDS011;62540;48.456;-4.456;2023-03-23T08:01:25;14.25;;;8.00;;
74177;SDS011;62540;48.456;-4.456;2023-03-23T08:03:51;14.25;;;8.50;;
74177;SDS011;62540;48.456;-4.456;2023-03-23T08:06:19;11.75;;;9.25;;
74177;SDS011;62540;48.456;-4.456;2023-03-23T08:08:46;15.25;;;10.00;;
74177;SDS011;62540;48.456;-4.456;2023-03-23T08:11:11;12.00;;;8.00;;
74177;SDS011;62540;48.456;-4.456;2023-03-23T08:13:38;17.25;;;10.50;;
74177;SDS011;62540;48.456;-4.456;2023-03-23T08:16:04;12.75;;;7.00;;
74177;SDS011;62540;48.456;-4.456;2023-03-23T08:18:30;12.50;;;8.25;;
74177;SDS011;62540;48.456;-4.456;2023-03-23T08:20:56;13.00;;;7.25;;
74177;SDS011;62540;48.456;-4.456;2023-03-23T08:23:22;16.00;;;11.00;;
74177;SDS011;62540;48.456;-4.456;2023-03-23T08:25:48;8.50;;;7.25;;
74177;SDS011;62540;48.456;-4.456;2023-03-23T08:28:13;26.25;;;10.50;;
74177;SDS011;62540;48.456;-4.456;2023-03-23T08:30:39;13.50;;;9.00;;
74177;SDS011;62540;48.456;-4.456;2023-03-23T08:33:06;13.00;;;9.75;;
74177;SDS011;62540;48.456;-4.456;2023-03-23T08:35:32;12.50;;;8.25;;
74177;SDS011;62540;48.456;-4.456;2023-03-23T08:37:58;9.50;;;7.00;;
74177;SDS011;62540;48.456;-4.456;2023-03-23T08:40:24;12.75;;;8.00;;
74177;SDS011;62540;48.456;-4.456;2023-03-23T08:42:50;11.00;;;8.00;;
74177;SDS011;62540;48.456;-4.456;2023-03-23T08:45:20;11.25;;;8.25;;
74177;SDS011;62540;48.456;-4.456;2023-03-23T08:47:47;12.25;;;8.00;;
74177;SDS011;62540;48.456;-4.456;2023-03-23T08:50:17;11.75;;;8.00;;
74177;SDS011;62540;48.456;-4.456;2023-03-23T08:52:44;14.50;;;9.00;;
74177;SDS011;62540;48.456;-4.456;2023-03-23T08:55:10;12.00;;;9.25;;
74177;SDS011;62540;48.456;-4.456;2023-03-23T08:57:37;14.75;;;8.25;;
74177;SDS011;62540;48.456;-4.456;2023-03-23T09:00:03;16.75;;;9.00;;
74177;SDS011;62540;48.456;-4.456;2023-03-23T09:02:39;16.75;;;10.00;;
74177;SDS011;62540;48.456;-4.456;2023-03-23T09:05:06;15.25;;;10.50;;
74177;SDS011;62540;48.456;-4.456;2023-03-23T09:07:32;12.00;;;8.00;;
74177;SDS011;62540;48.456;-4.456;2023-03-23T09:09:57;13.50;;;10.50;;
74177;SDS011;62540;48.456;-4.456;2023-03-23T09:12:23;14.50;;;9.25;;
74177;SDS011;62540;48.456;-4.456;2023-03-23T09:14:48;9.25;;;7.00;;
74177;SDS011;62540;48.456;-4.456;2023-03-23T09:17:14;8.25;;;7.50;;
74177;SDS011;62540;48.456;-4.456;2023-03-23T09:19:39;12.25;;;8.25;;
74177;SDS011;62540;48.456;-4.456;2023-03-23T09:22:06;13.00;;;10.75;;
74177;SDS011;62540;48.456;-4.456;2023-03-23T09:24:32;10.00;;;8.50;;
74177;SDS011;62540;48.456;-4.456;2023-03-23T09:26:58;14.75;;;8.25;;
74177;SDS011;62540;48.456;-4.456;2023-03-23T09:29:24;16.25;;;9.50;;
74177;SDS011;62540;48.456;-4.456;2023-03-23T09:31:51;13.75;;;9.00;;
74177;SDS011;62540;48.456;-4.456;2023-03-23T09:34:17;14.00;;;8.75;;
74177;SDS011;62540;48.456;-4.456;2023-03-23T09:36:43;14.25;;;9.00;;
74177;SDS011;62540;48.456;-4.456;2023-03-23T09:39:09;16.00;;;8.00;;
74177;SDS011;62540;48.456;-4.456;2023-03-23T09:44:43;11.50;;;7.50;;
74177;SDS011;62540;48.456;-4.456;2023-03-23T09:47:37;11.50;;;9.00;;
74177;SDS011;62540;48.456;-4.456;2023-03-23T09:50:23;12.50;;;10.75;;
74177;SDS011;62540;48.456;-4.456;2023-03-23T09:52:58;15.25;;;8.00;;
74177;SDS011;62540;48.456;-4.456;2023-03-23T09:55:28;17.25;;;10.50;;
74177;SDS011;62540;48.456;-4.456;2023-03-23T10:00:39;11.25;;;9.75;;
74177;SDS011;62540;48.456;-4.456;2023-03-23T10:03:18;13.25;;;8.25;;
74177;SDS011;62540;48.456;-4.456;2023-03-23T10:16:31;16.50;;;10.25;;
74177;SDS011;62540;48.456;-4.456;2023-03-23T10:19:17;17.00;;;12.00;;
74177;SDS011;62540;48.456;-4.456;2023-03-23T10:21:50;15.75;;;10.00;;
74177;SDS011;62540;48.456;-4.456;2023-03-23T10:24:19;9.25;;;7.75;;
74177;SDS011;62540;48.456;-4.456;2023-03-23T10:27:01;12.25;;;9.00;;
74177;SDS011;62540;48.456;-4.456;2023-03-23T10:29:55;13.50;;;10.00;;
74177;SDS011;62540;48.456;-4.456;2023-03-23T10:35:24;16.75;;;8.50;;
74177;SDS011;62540;48.456;-4.456;2023-03-23T10:37:56;14.50;;;8.00;;
74177;SDS011;62540;48.456;-4.456;2023-03-23T10:40:27;12.00;;;7.75;;
74177;SDS011;62540;48.456;-4.456;2023-03-23T10:42:54;11.00;;;9.25;;
74177;SDS011;62540;48.456;-4.456;2023-03-23T10:45:25;13.25;;;9.75;;
74177;SDS011;62540;48.456;-4.456;2023-03-23T10:48:03;15.75;;;10.75;;
74177;SDS011;62540;48.456;-4.456;2023-03-23T10:50:36;14.50;;;9.75;;
74177;SDS011;62540;48.456;-4.456;2023-03-23T10:53:07;12.25;;;8.00;;
74177;SDS011;62540;48.456;-4.456;2023-03-23T10:55:43;13.25;;;8.50;;
74177;SDS011;62540;48.456;-4.456;2023-03-23T10:58:21;10.75;;;8.00;;
74177;SDS011;62540;48.456;-4.456;2023-03-23T11:00:49;6.25;;;6.25;;
74177;SDS011;62540;48.456;-4.456;2023-03-23T11:05:51;11.75;;;9.50;;
74177;SDS011;62540;48.456;-4.456;2023-03-23T11:08:19;11.00;;;8.25;;
74177;SDS011;62540;48.456;-4.456;2023-03-23T11:13:42;10.00;;;6.00;;
74177;SDS011;62540;48.456;-4.456;2023-03-23T11:16:09;10.00;;;7.00;;
74177;SDS011;62540;48.456;-4.456;2023-03-23T11:18:39;15.50;;;5.25;;
74177;SDS011;62540;48.456;-4.456;2023-03-23T11:21:10;8.25;;;3.75;;
74177;SDS011;62540;48.456;-4.456;2023-03-23T11:23:41;11.25;;;8.75;;
74177;SDS011;62540;48.456;-4.456;2023-03-23T11:28:37;7.75;;;6.75;;
74177;SDS011;62540;48.456;-4.456;2023-03-23T11:31:07;7.50;;;5.50;;
74177;SDS011;62540;48.456;-4.456;2023-03-23T11:36:16;5.75;;;5.00;;
74177;SDS011;62540;48.456;-4.456;2023-03-23T11:38:42;10.00;;;8.00;;
74177;SDS011;62540;48.456;-4.456;2023-03-23T11:41:10;9.50;;;6.00;;
74177;SDS011;62540;48.456;-4.456;2023-03-23T11:43:39;12.25;;;7.00;;
74177;SDS011;62540;48.456;-4.456;2023-03-23T11:46:09;13.00;;;7.50;;
74177;SDS011;62540;48.456;-4.456;2023-03-23T11:48:57;10.25;;;7.00;;
74177;SDS011;62540;48.456;-4.456;2023-03-23T11:56:31;8.25;;;7.00;;
74177;SDS011;62540;48.456;-4.456;2023-03-23T11:58:59;12.00;;;8.25;;
74177;SDS011;62540;48.456;-4.456;2023-03-23T12:04:18;11.00;;;7.25;;
74177;SDS011;62540;48.456;-4.456;2023-03-23T12:07:35;7.75;;;6.50;;
74177;SDS011;62540;48.456;-4.456;2023-03-23T12:09:41;14.50;;;8.25;;
74177;SDS011;62540;48.456;-4.456;2023-03-23T12:15:08;15.50;;;9.50;;
74177;SDS011;62540;48.456;-4.456;2023-03-23T12:26:24;14.25;;;7.25;;
74177;SDS011;62540;48.456;-4.456;2023-03-23T12:29:10;12.75;;;7.50;;
74177;SDS011;62540;48.456;-4.456;2023-03-23T12:31:49;11.00;;;7.75;;
74177;SDS011;62540;48.456;-4.456;2023-03-23T12:48:40;11.75;;;10.25;;
74177;SDS011;62540;48.456;-4.456;2023-03-23T12:53:58;13.00;;;8.00;;
74177;SDS011;62540;48.456;-4.456;2023-03-23T12:56:52;11.25;;;6.75;;
74177;SDS011;62540;48.456;-4.456;2023-03-23T12:59:29;11.25;;;9.25;;
74177;SDS011;62540;48.456;-4.456;2023-03-23T13:02:13;14.00;;;9.00;;
74177;SDS011;62540;48.456;-4.456;2023-03-23T13:04:47;11.75;;;8.25;;
74177;SDS011;62540;48.456;-4.456;2023-03-23T13:07:25;12.00;;;9.75;;
74177;SDS011;62540;48.456;-4.456;2023-03-23T13:10:29;13.75;;;9.00;;
74177;SDS011;62540;48.456;-4.456;2023-03-23T13:12:48;7.25;;;6.50;;
74177;SDS011;62540;48.456;-4.456;2023-03-23T13:21:00;9.50;;;7.50;;
74177;SDS011;62540;48.456;-4.456;2023-03-23T13:23:30;9.00;;;9.00;;
74177;SDS011;62540;48.456;-4.456;2023-03-23T13:28:33;5.00;;;3.75;;
74177;SDS011;62540;48.456;-4.456;2023-03-23T13:33:45;8.00;;;6.75;;
74177;SDS011;62540;48.456;-4.456;2023-03-23T13:36:14;11.50;;;8.00;;
74177;SDS011;62540;48.456;-4.456;2023-03-23T13:38:47;4.25;;;1.00;;
74177;SDS011;62540;48.456;-4.456;2023-03-23T13:41:15;14.25;;;11.00;;
74177;SDS011;62540;48.456;-4.456;2023-03-23T13:43:45;10.25;;;6.25;;
74177;SDS011;62540;48.456;-4.456;2023-03-23T13:46:29;11.50;;;9.75;;
74177;SDS011;62540;48.456;-4.456;2023-03-23T13:56:54;9.50;;;8.75;;
74177;SDS011;62540;48.456;-4.456;2023-03-23T14:01:52;9.00;;;6.75;;
74177;SDS011;62540;48.456;-4.456;2023-03-23T14:04:22;10.75;;;8.25;;
74177;SDS011;62540;48.456;-4.456;2023-03-23T14:06:55;9.75;;;7.75;;
74177;SDS011;62540;48.456;-4.456;2023-03-23T14:09:25;8.00;;;5.75;;
74177;SDS011;62540;48.456;-4.456;2023-03-23T14:11:57;11.00;;;7.00;;
74177;SDS011;62540;48.456;-4.456;2023-03-23T14:14:33;5.00;;;2.75;;
74177;SDS011;62540;48.456;-4.456;2023-03-23T14:17:14;9.50;;;6.75;;
74177;SDS011;62540;48.456;-4.456;2023-03-23T14:19:44;8.50;;;6.75;;
74177;SDS011;62540;48.456;-4.456;2023-03-23T14:22:20;14.50;;;7.25;;
74177;SDS011;62540;48.456;-4.456;2023-03-23T14:24:48;15.25;;;9.00;;
74177;SDS011;62540;48.456;-4.456;2023-03-23T14:27:16;10.75;;;8.25;;
74177;SDS011;62540;48.456;-4.456;2023-03-23T14:29:44;9.25;;;7.50;;
74177;SDS011;62540;48.456;-4.456;2023-03-23T14:32:12;12.75;;;8.50;;
74177;SDS011;62540;48.456;-4.456;2023-03-23T14:34:40;11.50;;;9.00;;
74177;SDS011;62540;48.456;-4.456;2023-03-23T14:37:08;10.00;;;8.75;;
74177;SDS011;62540;48.456;-4.456;2023-03-23T14:39:40;12.00;;;9.50;;
74177;SDS011;62540;48.456;-4.456;2023-03-23T14:42:11;14.25;;;8.00;;
74177;SDS011;62540;48.456;-4.456;2023-03-23T14:44:43;7.75;;;6.75;;
74177;SDS011;62540;48.456;-4.456;2023-03-23T14:47:22;12.50;;;9.25;;
74177;SDS011;62540;48.456;-4.456;2023-03-23T14:49:52;8.75;;;8.00;;
74177;SDS011;62540;48.456;-4.456;2023-03-23T14:52:21;10.50;;;7.75;;
74177;SDS011;62540;48.456;-4.456;2023-03-23T14:54:49;15.50;;;10.75;;
74177;SDS011;62540;48.456;-4.456;2023-03-23T14:57:32;11.25;;;7.75;;
74177;SDS011;62540;48.456;-4.456;2023-03-23T14:59:58;10.50;;;8.00;;
74177;SDS011;62540;48.456;-4.456;2023-03-23T15:05:02;11.25;;;7.50;;
74177;SDS011;62540;48.456;-4.456;2023-03-23T15:07:35;12.50;;;8.00;;
74177;SDS011;62540;48.456;-4.456;2023-03-23T15:10:06;10.75;;;9.25;;
74177;SDS011;62540;48.456;-4.456;2023-03-23T15:12:32;9.25;;;7.50;;
74177;SDS011;62540;48.456;-4.456;2023-03-23T15:15:00;10.00;;;8.00;;
74177;SDS011;62540;48.456;-4.456;2023-03-23T15:17:36;9.25;;;8.00;;
74177;SDS011;62540;48.456;-4.456;2023-03-23T15:22:50;4.75;;;3.25;;
74177;SDS011;62540;48.456;-4.456;2023-03-23T15:25:29;8.00;;;7.00;;
74177;SDS011;62540;48.456;-4.456;2023-03-23T15:27:57;10.00;;;5.75;;
74177;SDS011;62540;48.456;-4.456;2023-03-23T15:30:33;8.00;;;5.00;;
74177;SDS011;62540;48.456;-4.456;2023-03-23T15:33:08;8.25;;;6.25;;
74177;SDS011;62540;48.456;-4.456;2023-03-23T15:35:37;7.50;;;6.00;;
74177;SDS011;62540;48.456;-4.456;2023-03-23T15:38:06;7.50;;;5.00;;
74177;SDS011;62540;48.456;-4.456;2023-03-23T15:40:44;5.00;;;4.00;;
74177;SDS011;62540;48.456;-4.456;2023-03-23T15:43:17;7.25;;;5.75;;
74177;SDS011;62540;48.456;-4.456;2023-03-23T15:48:49;6.50;;;5.00;;
74177;SDS011;62540;48.456;-4.456;2023-03-23T15:51:20;7.50;;;6.00;;
74177;SDS011;62540;48.456;-4.456;2023-03-23T15:53:49;3.00;;;2.25;;
74177;SDS011;62540;48.456;-4.456;2023-03-23T15:56:16;7.00;;;4.00;;
74177;SDS011;62540;48.456;-4.456;2023-03-23T15:58:42;5.00;;;4.75;;
74177;SDS011;62540;48.456;-4.456;2023-03-23T16:01:11;5.50;;;4.75;;
74177;SDS011;62540;48.456;-4.456;2023-03-23T16:06:24;5.75;;;4.00;;
74177;SDS011;62540;48.456;-4.456;2023-03-23T16:08:54;4.25;;;2.00;;
74177;SDS011;62540;48.456;-4.456;2023-03-23T16:11:20;2.00;;;2.00;;
74177;SDS011;62540;48.456;-4.456;2023-03-23T16:13:47;2.50;;;2.00;;
74177;SDS011;62540;48.456;-4.456;2023-03-23T16:16:13;2.00;;;1.75;;
74177;SDS011;62540;48.456;-4.456;2023-03-23T16:18:41;2.75;;;2.00;;
74177;SDS011;62540;48.456;-4.456;2023-03-23T16:21:07;3.00;;;3.00;;
74177;SDS011;62540;48.456;-4.456;2023-03-23T16:23:33;3.25;;;3.25;;
74177;SDS011;62540;48.456;-4.456;2023-03-23T16:25:58;5.00;;;4.00;;
74177;SDS011;62540;48.456;-4.456;2023-03-23T16:28:23;5.00;;;4.00;;
74177;SDS011;62540;48.456;-4.456;2023-03-23T16:30:49;7.00;;;5.75;;
74177;SDS011;62540;48.456;-4.456;2023-03-23T16:33:14;4.00;;;3.00;;
74177;SDS011;62540;48.456;-4.456;2023-03-23T16:35:40;4.75;;;2.75;;
74177;SDS011;62540;48.456;-4.456;2023-03-23T16:38:06;5.25;;;4.25;;
74177;SDS011;62540;48.456;-4.456;2023-03-23T16:40:31;4.00;;;3.75;;
74177;SDS011;62540;48.456;-4.456;2023-03-23T16:42:57;3.00;;;2.00;;